Foxcroft, Pennsylvania
Current Conditions -  °F | °C
As of 4:54 PM on Friday 31 Oct 2014 (Local Time) from KPNE Reporting Station
Overcast Overcast  
Wind Chill: 51°   Ceiling: 3500
Heat Index: 51°   Visibility: 10mi
Dew Point: 35°   Wind: 10mph
Humidity: 54%   Direction: 30°NNE
Pressure: 29.91"   Gusts: NA
Location:  40.1039°N, 75.1072°W
Report Text: KPNE 312054Z AUTO 03009KT 10SM BKN035 OVC044 11/02 A2991 RMK AO2 SLP127 T01060017 56010 TSNO
Loading
Personal Weather Stations






























Interactive Weather Map
Tropical Storm Tracking
New forecast layout! Learn more

10-Day Weather Forecast

Advertisements
Track Severe Weather on mobile